sensor_id;sensor_type;location;lat;lon;timestamp;P1;durP1;ratioP1;P2;durP2;ratioP2
38111;SDS011;64011;56.312;44.048;2023-03-13T00:00:15;2.30;;;0.80;;
38111;SDS011;64011;56.312;44.048;2023-03-13T00:02:16;2.55;;;1.00;;
38111;SDS011;64011;56.312;44.048;2023-03-13T00:04:17;2.58;;;0.90;;
38111;SDS011;64011;56.312;44.048;2023-03-13T00:06:18;2.88;;;1.38;;
38111;SDS011;64011;56.312;44.048;2023-03-13T00:08:18;3.10;;;1.27;;
38111;SDS011;64011;56.312;44.048;2023-03-13T00:10:20;4.28;;;1.42;;
38111;SDS011;64011;56.312;44.048;2023-03-13T00:12:21;4.60;;;1.50;;
38111;SDS011;64011;56.312;44.048;2023-03-13T00:14:22;5.10;;;1.80;;
38111;SDS011;64011;56.312;44.048;2023-03-13T00:16:23;5.90;;;1.73;;
38111;SDS011;64011;56.312;44.048;2023-03-13T00:18:24;2.53;;;1.10;;
38111;SDS011;64011;56.312;44.048;2023-03-13T00:20:24;4.18;;;1.50;;
38111;SDS011;64011;56.312;44.048;2023-03-13T00:22:25;4.97;;;1.83;;
38111;SDS011;64011;56.312;44.048;2023-03-13T00:24:26;4.25;;;1.80;;
38111;SDS011;64011;56.312;44.048;2023-03-13T00:26:28;4.55;;;1.73;;
38111;SDS011;64011;56.312;44.048;2023-03-13T00:28:30;4.00;;;1.52;;
38111;SDS011;64011;56.312;44.048;2023-03-13T00:30:32;4.82;;;1.92;;
38111;SDS011;64011;56.312;44.048;2023-03-13T00:32:33;4.78;;;1.90;;
38111;SDS011;64011;56.312;44.048;2023-03-13T00:34:34;3.15;;;1.40;;
38111;SDS011;64011;56.312;44.048;2023-03-13T00:36:35;3.40;;;1.20;;
38111;SDS011;64011;56.312;44.048;2023-03-13T00:38:35;4.80;;;1.52;;
38111;SDS011;64011;56.312;44.048;2023-03-13T00:40:36;6.10;;;2.08;;
38111;SDS011;64011;56.312;44.048;2023-03-13T00:42:38;3.97;;;1.70;;
38111;SDS011;64011;56.312;44.048;2023-03-13T00:44:39;7.57;;;2.03;;
38111;SDS011;64011;56.312;44.048;2023-03-13T00:46:40;7.18;;;2.00;;
38111;SDS011;64011;56.312;44.048;2023-03-13T00:48:40;4.93;;;2.00;;
38111;SDS011;64011;56.312;44.048;2023-03-13T00:50:41;3.35;;;1.70;;
38111;SDS011;64011;56.312;44.048;2023-03-13T00:52:42;4.15;;;1.80;;
38111;SDS011;64011;56.312;44.048;2023-03-13T00:54:43;4.55;;;1.65;;
38111;SDS011;64011;56.312;44.048;2023-03-13T00:56:43;5.05;;;1.70;;
38111;SDS011;64011;56.312;44.048;2023-03-13T00:58:46;5.70;;;2.10;;
38111;SDS011;64011;56.312;44.048;2023-03-13T01:00:47;7.05;;;2.30;;
38111;SDS011;64011;56.312;44.048;2023-03-13T01:02:48;6.15;;;2.20;;
38111;SDS011;64011;56.312;44.048;2023-03-13T01:04:49;4.13;;;1.60;;
38111;SDS011;64011;56.312;44.048;2023-03-13T01:06:50;7.35;;;2.83;;
38111;SDS011;64011;56.312;44.048;2023-03-13T01:08:50;6.07;;;2.03;;
38111;SDS011;64011;56.312;44.048;2023-03-13T01:10:56;6.10;;;2.38;;
38111;SDS011;64011;56.312;44.048;2023-03-13T01:12:57;6.95;;;2.40;;
38111;SDS011;64011;56.312;44.048;2023-03-13T01:14:59;4.82;;;1.88;;
38111;SDS011;64011;56.312;44.048;2023-03-13T01:17:00;7.78;;;2.47;;
38111;SDS011;64011;56.312;44.048;2023-03-13T01:19:01;9.02;;;2.75;;
38111;SDS011;64011;56.312;44.048;2023-03-13T01:21:04;6.20;;;2.42;;
38111;SDS011;64011;56.312;44.048;2023-03-13T01:23:05;4.63;;;1.40;;
38111;SDS011;64011;56.312;44.048;2023-03-13T01:25:06;8.07;;;2.90;;
38111;SDS011;64011;56.312;44.048;2023-03-13T01:27:07;6.55;;;2.53;;
38111;SDS011;64011;56.312;44.048;2023-03-13T01:29:08;7.88;;;2.60;;
38111;SDS011;64011;56.312;44.048;2023-03-13T01:31:11;7.72;;;2.40;;
38111;SDS011;64011;56.312;44.048;2023-03-13T01:33:12;5.70;;;2.33;;
38111;SDS011;64011;56.312;44.048;2023-03-13T01:35:13;8.13;;;2.88;;
38111;SDS011;64011;56.312;44.048;2023-03-13T01:37:14;6.43;;;2.22;;
38111;SDS011;64011;56.312;44.048;2023-03-13T01:39:15;6.55;;;2.70;;
38111;SDS011;64011;56.312;44.048;2023-03-13T01:41:16;5.72;;;2.28;;
38111;SDS011;64011;56.312;44.048;2023-03-13T01:43:18;7.18;;;2.40;;
38111;SDS011;64011;56.312;44.048;2023-03-13T01:48:00;7.78;;;3.13;;
38111;SDS011;64011;56.312;44.048;2023-03-13T01:50:01;4.15;;;1.77;;
38111;SDS011;64011;56.312;44.048;2023-03-13T01:52:02;5.10;;;1.85;;
38111;SDS011;64011;56.312;44.048;2023-03-13T01:54:07;6.70;;;2.63;;
38111;SDS011;64011;56.312;44.048;2023-03-13T01:56:10;5.15;;;1.92;;
38111;SDS011;64011;56.312;44.048;2023-03-13T01:58:14;6.03;;;2.20;;
38111;SDS011;64011;56.312;44.048;2023-03-13T02:00:16;5.65;;;2.10;;
38111;SDS011;64011;56.312;44.048;2023-03-13T02:02:20;5.68;;;2.08;;
38111;SDS011;64011;56.312;44.048;2023-03-13T02:04:23;3.55;;;1.50;;
38111;SDS011;64011;56.312;44.048;2023-03-13T02:06:24;4.47;;;1.58;;
38111;SDS011;64011;56.312;44.048;2023-03-13T02:08:29;2.22;;;1.02;;
38111;SDS011;64011;56.312;44.048;2023-03-13T02:10:32;3.38;;;1.33;;
38111;SDS011;64011;56.312;44.048;2023-03-13T02:12:36;3.88;;;1.50;;
38111;SDS011;64011;56.312;44.048;2023-03-13T02:14:39;4.10;;;1.30;;
38111;SDS011;64011;56.312;44.048;2023-03-13T02:16:41;2.70;;;1.35;;
38111;SDS011;64011;56.312;44.048;2023-03-13T02:18:42;3.25;;;1.40;;
38111;SDS011;64011;56.312;44.048;2023-03-13T02:20:45;4.10;;;1.60;;
38111;SDS011;64011;56.312;44.048;2023-03-13T02:22:47;3.55;;;1.42;;
38111;SDS011;64011;56.312;44.048;2023-03-13T02:24:52;3.55;;;1.30;;
38111;SDS011;64011;56.312;44.048;2023-03-13T02:26:57;5.72;;;1.83;;
38111;SDS011;64011;56.312;44.048;2023-03-13T02:28:58;5.20;;;1.60;;
38111;SDS011;64011;56.312;44.048;2023-03-13T02:30:59;5.45;;;1.60;;
38111;SDS011;64011;56.312;44.048;2023-03-13T02:33:00;5.20;;;1.92;;
38111;SDS011;64011;56.312;44.048;2023-03-13T02:35:03;3.55;;;1.38;;
38111;SDS011;64011;56.312;44.048;2023-03-13T02:37:07;6.05;;;2.00;;
38111;SDS011;64011;56.312;44.048;2023-03-13T02:39:08;5.63;;;1.98;;
38111;SDS011;64011;56.312;44.048;2023-03-13T02:41:09;4.63;;;1.77;;
38111;SDS011;64011;56.312;44.048;2023-03-13T02:43:12;6.80;;;2.17;;
38111;SDS011;64011;56.312;44.048;2023-03-13T02:45:16;3.70;;;1.73;;
38111;SDS011;64011;56.312;44.048;2023-03-13T02:47:18;5.05;;;1.85;;
38111;SDS011;64011;56.312;44.048;2023-03-13T02:49:20;4.07;;;1.40;;
38111;SDS011;64011;56.312;44.048;2023-03-13T02:51:24;5.07;;;1.92;;
38111;SDS011;64011;56.312;44.048;2023-03-13T02:53:29;5.65;;;1.77;;
38111;SDS011;64011;56.312;44.048;2023-03-13T02:55:30;5.72;;;2.00;;
38111;SDS011;64011;56.312;44.048;2023-03-13T02:57:32;5.75;;;1.95;;
38111;SDS011;64011;56.312;44.048;2023-03-13T02:59:34;5.57;;;2.10;;
38111;SDS011;64011;56.312;44.048;2023-03-13T03:01:35;5.80;;;1.83;;
38111;SDS011;64011;56.312;44.048;2023-03-13T03:03:36;6.68;;;2.00;;
38111;SDS011;64011;56.312;44.048;2023-03-13T03:05:37;8.85;;;2.53;;
38111;SDS011;64011;56.312;44.048;2023-03-13T03:07:38;5.40;;;2.00;;
38111;SDS011;64011;56.312;44.048;2023-03-13T03:09:38;4.88;;;1.83;;
38111;SDS011;64011;56.312;44.048;2023-03-13T03:11:39;5.70;;;2.28;;
38111;SDS011;64011;56.312;44.048;2023-03-13T03:13:40;3.75;;;1.67;;
38111;SDS011;64011;56.312;44.048;2023-03-13T03:15:42;4.95;;;1.80;;
38111;SDS011;64011;56.312;44.048;2023-03-13T03:17:43;4.88;;;1.92;;
38111;SDS011;64011;56.312;44.048;2023-03-13T03:19:43;8.25;;;2.72;;
38111;SDS011;64011;56.312;44.048;2023-03-13T03:21:44;2.47;;;1.38;;
38111;SDS011;64011;56.312;44.048;2023-03-13T03:23:45;7.57;;;2.80;;
38111;SDS011;64011;56.312;44.048;2023-03-13T03:25:46;7.85;;;2.90;;
38111;SDS011;64011;56.312;44.048;2023-03-13T03:27:47;5.65;;;2.22;;
38111;SDS011;64011;56.312;44.048;2023-03-13T03:29:47;7.65;;;2.47;;
38111;SDS011;64011;56.312;44.048;2023-03-13T03:31:49;7.28;;;2.38;;
38111;SDS011;64011;56.312;44.048;2023-03-13T03:33:50;10.13;;;2.70;;
38111;SDS011;64011;56.312;44.048;2023-03-13T03:35:51;6.63;;;2.30;;
38111;SDS011;64011;56.312;44.048;2023-03-13T03:37:52;7.22;;;2.78;;
38111;SDS011;64011;56.312;44.048;2023-03-13T03:39:52;6.43;;;2.45;;
38111;SDS011;64011;56.312;44.048;2023-03-13T03:41:53;7.28;;;2.22;;
38111;SDS011;64011;56.312;44.048;2023-03-13T03:43:54;4.45;;;1.38;;
38111;SDS011;64011;56.312;44.048;2023-03-13T03:45:56;5.55;;;2.28;;
38111;SDS011;64011;56.312;44.048;2023-03-13T03:47:58;4.70;;;1.63;;
38111;SDS011;64011;56.312;44.048;2023-03-13T03:49:59;6.28;;;2.53;;
38111;SDS011;64011;56.312;44.048;2023-03-13T03:51:59;5.90;;;1.98;;
38111;SDS011;64011;56.312;44.048;2023-03-13T03:54:00;4.35;;;1.88;;
38111;SDS011;64011;56.312;44.048;2023-03-13T03:56:01;4.65;;;1.98;;
38111;SDS011;64011;56.312;44.048;2023-03-13T03:58:02;6.88;;;1.95;;
38111;SDS011;64011;56.312;44.048;2023-03-13T04:00:03;4.47;;;1.55;;
38111;SDS011;64011;56.312;44.048;2023-03-13T04:02:04;5.88;;;2.10;;
38111;SDS011;64011;56.312;44.048;2023-03-13T04:04:06;7.05;;;2.58;;
38111;SDS011;64011;56.312;44.048;2023-03-13T04:06:07;8.13;;;1.98;;
38111;SDS011;64011;56.312;44.048;2023-03-13T04:08:08;4.35;;;2.00;;
38111;SDS011;64011;56.312;44.048;2023-03-13T04:10:10;6.10;;;2.05;;
38111;SDS011;64011;56.312;44.048;2023-03-13T04:12:11;5.88;;;2.25;;
38111;SDS011;64011;56.312;44.048;2023-03-13T04:14:11;4.93;;;1.67;;
38111;SDS011;64011;56.312;44.048;2023-03-13T04:16:12;5.43;;;1.80;;
38111;SDS011;64011;56.312;44.048;2023-03-13T04:18:13;6.07;;;2.00;;
38111;SDS011;64011;56.312;44.048;2023-03-13T04:20:15;7.25;;;2.28;;
38111;SDS011;64011;56.312;44.048;2023-03-13T04:22:16;5.55;;;2.15;;
38111;SDS011;64011;56.312;44.048;2023-03-13T04:24:17;8.23;;;2.38;;
38111;SDS011;64011;56.312;44.048;2023-03-13T04:26:18;6.25;;;2.05;;
38111;SDS011;64011;56.312;44.048;2023-03-13T04:28:18;5.68;;;2.00;;
38111;SDS011;64011;56.312;44.048;2023-03-13T04:30:19;5.35;;;1.98;;
38111;SDS011;64011;56.312;44.048;2023-03-13T04:32:20;5.35;;;2.05;;
38111;SDS011;64011;56.312;44.048;2023-03-13T04:34:21;4.40;;;1.98;;
38111;SDS011;64011;56.312;44.048;2023-03-13T04:36:23;5.35;;;1.92;;
38111;SDS011;64011;56.312;44.048;2023-03-13T04:38:25;4.18;;;1.27;;
38111;SDS011;64011;56.312;44.048;2023-03-13T04:40:26;5.28;;;1.73;;
38111;SDS011;64011;56.312;44.048;2023-03-13T04:42:26;5.03;;;1.70;;
38111;SDS011;64011;56.312;44.048;2023-03-13T04:44:27;4.50;;;1.98;;
38111;SDS011;64011;56.312;44.048;2023-03-13T04:46:28;7.40;;;2.30;;
38111;SDS011;64011;56.312;44.048;2023-03-13T04:48:28;4.43;;;1.60;;
38111;SDS011;64011;56.312;44.048;2023-03-13T04:50:29;8.98;;;2.15;;
38111;SDS011;64011;56.312;44.048;2023-03-13T04:52:31;7.32;;;2.45;;
38111;SDS011;64011;56.312;44.048;2023-03-13T04:54:32;6.55;;;2.28;;
38111;SDS011;64011;56.312;44.048;2023-03-13T04:56:33;5.40;;;1.40;;
38111;SDS011;64011;56.312;44.048;2023-03-13T04:58:34;6.03;;;2.25;;
38111;SDS011;64011;56.312;44.048;2023-03-13T05:00:35;7.60;;;2.60;;
38111;SDS011;64011;56.312;44.048;2023-03-13T05:02:35;7.25;;;2.20;;
38111;SDS011;64011;56.312;44.048;2023-03-13T05:04:36;8.18;;;2.88;;
38111;SDS011;64011;56.312;44.048;2023-03-13T05:06:37;5.78;;;2.30;;
38111;SDS011;64011;56.312;44.048;2023-03-13T05:08:39;7.90;;;2.20;;
38111;SDS011;64011;56.312;44.048;2023-03-13T05:10:40;8.10;;;2.65;;
38111;SDS011;64011;56.312;44.048;2023-03-13T05:12:41;8.13;;;2.53;;
38111;SDS011;64011;56.312;44.048;2023-03-13T05:14:42;5.72;;;2.05;;
38111;SDS011;64011;56.312;44.048;2023-03-13T05:16:43;6.30;;;2.22;;
38111;SDS011;64011;56.312;44.048;2023-03-13T05:18:44;7.60;;;2.42;;
38111;SDS011;64011;56.312;44.048;2023-03-13T05:20:45;7.40;;;2.38;;
38111;SDS011;64011;56.312;44.048;2023-03-13T05:22:45;6.28;;;2.30;;
38111;SDS011;64011;56.312;44.048;2023-03-13T05:24:47;5.05;;;2.28;;
38111;SDS011;64011;56.312;44.048;2023-03-13T05:26:48;6.63;;;2.38;;
38111;SDS011;64011;56.312;44.048;2023-03-13T05:28:49;6.43;;;2.50;;
38111;SDS011;64011;56.312;44.048;2023-03-13T05:30:50;4.82;;;1.73;;
38111;SDS011;64011;56.312;44.048;2023-03-13T05:32:50;4.97;;;1.85;;
38111;SDS011;64011;56.312;44.048;2023-03-13T05:34:51;6.07;;;2.40;;
38111;SDS011;64011;56.312;44.048;2023-03-13T05:36:52;7.65;;;2.03;;
38111;SDS011;64011;56.312;44.048;2023-03-13T05:38:53;5.10;;;2.10;;
38111;SDS011;64011;56.312;44.048;2023-03-13T05:40:55;6.65;;;2.30;;
38111;SDS011;64011;56.312;44.048;2023-03-13T05:42:55;8.07;;;2.30;;
38111;SDS011;64011;56.312;44.048;2023-03-13T05:44:56;5.95;;;2.40;;
38111;SDS011;64011;56.312;44.048;2023-03-13T05:46:57;5.95;;;2.15;;
38111;SDS011;64011;56.312;44.048;2023-03-13T05:48:58;5.82;;;1.80;;
38111;SDS011;64011;56.312;44.048;2023-03-13T05:50:58;4.43;;;1.98;;
38111;SDS011;64011;56.312;44.048;2023-03-13T05:52:59;7.25;;;2.78;;
38111;SDS011;64011;56.312;44.048;2023-03-13T05:55:00;6.82;;;2.72;;
38111;SDS011;64011;56.312;44.048;2023-03-13T05:57:02;7.38;;;2.38;;
38111;SDS011;64011;56.312;44.048;2023-03-13T05:59:03;7.05;;;2.90;;
38111;SDS011;64011;56.312;44.048;2023-03-13T06:01:05;7.03;;;2.60;;
38111;SDS011;64011;56.312;44.048;2023-03-13T06:03:06;5.82;;;2.70;;
38111;SDS011;64011;56.312;44.048;2023-03-13T06:05:07;5.22;;;2.13;;
38111;SDS011;64011;56.312;44.048;2023-03-13T06:07:08;7.15;;;2.63;;
38111;SDS011;64011;56.312;44.048;2023-03-13T06:09:09;8.73;;;2.38;;
38111;SDS011;64011;56.312;44.048;2023-03-13T06:11:10;6.43;;;2.47;;
38111;SDS011;64011;56.312;44.048;2023-03-13T06:13:12;5.85;;;2.38;;
38111;SDS011;64011;56.312;44.048;2023-03-13T06:15:13;6.22;;;2.30;;
38111;SDS011;64011;56.312;44.048;2023-03-13T06:17:13;5.88;;;2.17;;
38111;SDS011;64011;56.312;44.048;2023-03-13T06:19:14;6.22;;;2.40;;
38111;SDS011;64011;56.312;44.048;2023-03-13T06:21:15;4.88;;;2.00;;
38111;SDS011;64011;56.312;44.048;2023-03-13T06:23:16;7.53;;;2.28;;
38111;SDS011;64011;56.312;44.048;2023-03-13T06:25:18;5.72;;;2.28;;
38111;SDS011;64011;56.312;44.048;2023-03-13T06:27:19;6.10;;;2.50;;
38111;SDS011;64011;56.312;44.048;2023-03-13T06:29:21;6.75;;;2.40;;
38111;SDS011;64011;56.312;44.048;2023-03-13T06:31:22;5.75;;;2.55;;
38111;SDS011;64011;56.312;44.048;2023-03-13T06:33:22;5.32;;;2.08;;
38111;SDS011;64011;56.312;44.048;2023-03-13T06:35:23;4.30;;;2.20;;
38111;SDS011;64011;56.312;44.048;2023-03-13T06:37:24;6.32;;;2.10;;
38111;SDS011;64011;56.312;44.048;2023-03-13T06:39:25;6.70;;;2.50;;
38111;SDS011;64011;56.312;44.048;2023-03-13T06:41:25;8.25;;;2.60;;
38111;SDS011;64011;56.312;44.048;2023-03-13T06:43:26;6.85;;;2.25;;
38111;SDS011;64011;56.312;44.048;2023-03-13T06:45:29;7.03;;;2.53;;
38111;SDS011;64011;56.312;44.048;2023-03-13T06:47:30;6.32;;;2.50;;
38111;SDS011;64011;56.312;44.048;2023-03-13T06:49:31;6.65;;;2.55;;
38111;SDS011;64011;56.312;44.048;2023-03-13T06:51:32;6.10;;;2.50;;
38111;SDS011;64011;56.312;44.048;2023-03-13T06:53:32;6.20;;;2.30;;
38111;SDS011;64011;56.312;44.048;2023-03-13T06:55:33;5.13;;;1.80;;
38111;SDS011;64011;56.312;44.048;2023-03-13T06:57:34;7.20;;;2.50;;
38111;SDS011;64011;56.312;44.048;2023-03-13T06:59:35;5.15;;;1.85;;
38111;SDS011;64011;56.312;44.048;2023-03-13T07:01:37;7.13;;;2.15;;
38111;SDS011;64011;56.312;44.048;2023-03-13T07:03:38;5.57;;;2.10;;
38111;SDS011;64011;56.312;44.048;2023-03-13T07:05:39;6.05;;;1.98;;
38111;SDS011;64011;56.312;44.048;2023-03-13T07:07:40;4.47;;;1.67;;
38111;SDS011;64011;56.312;44.048;2023-03-13T07:09:41;5.15;;;1.70;;
38111;SDS011;64011;56.312;44.048;2023-03-13T07:11:41;6.47;;;2.13;;
38111;SDS011;64011;56.312;44.048;2023-03-13T07:13:42;7.70;;;1.95;;
38111;SDS011;64011;56.312;44.048;2023-03-13T07:15:43;5.68;;;1.73;;
38111;SDS011;64011;56.312;44.048;2023-03-13T07:17:45;3.92;;;1.70;;
38111;SDS011;64011;56.312;44.048;2023-03-13T07:19:46;6.43;;;2.00;;
38111;SDS011;64011;56.312;44.048;2023-03-13T07:21:47;4.93;;;1.90;;
38111;SDS011;64011;56.312;44.048;2023-03-13T07:23:47;5.47;;;1.92;;
38111;SDS011;64011;56.312;44.048;2023-03-13T07:25:52;7.30;;;2.10;;
38111;SDS011;64011;56.312;44.048;2023-03-13T07:27:53;8.80;;;2.28;;
38111;SDS011;64011;56.312;44.048;2023-03-13T07:29:54;7.38;;;2.00;;
38111;SDS011;64011;56.312;44.048;2023-03-13T07:31:54;8.57;;;2.70;;
38111;SDS011;64011;56.312;44.048;2023-03-13T07:33:56;6.32;;;2.20;;
38111;SDS011;64011;56.312;44.048;2023-03-13T07:35:57;8.15;;;2.40;;
38111;SDS011;64011;56.312;44.048;2023-03-13T07:37:58;5.40;;;2.25;;
38111;SDS011;64011;56.312;44.048;2023-03-13T07:39:59;8.70;;;2.40;;
38111;SDS011;64011;56.312;44.048;2023-03-13T07:41:59;5.93;;;1.77;;
38111;SDS011;64011;56.312;44.048;2023-03-13T07:44:00;8.23;;;2.35;;
38111;SDS011;64011;56.312;44.048;2023-03-13T07:46:02;6.15;;;2.22;;
38111;SDS011;64011;56.312;44.048;2023-03-13T07:48:04;4.85;;;1.52;;
38111;SDS011;64011;56.312;44.048;2023-03-13T07:50:07;5.22;;;1.80;;
38111;SDS011;64011;56.312;44.048;2023-03-13T07:52:08;5.82;;;1.70;;
38111;SDS011;64011;56.312;44.048;2023-03-13T07:54:09;4.82;;;1.77;;
38111;SDS011;64011;56.312;44.048;2023-03-13T07:56:11;6.13;;;1.83;;
38111;SDS011;64011;56.312;44.048;2023-03-13T07:58:13;6.38;;;2.08;;
38111;SDS011;64011;56.312;44.048;2023-03-13T08:00:14;3.58;;;1.38;;
38111;SDS011;64011;56.312;44.048;2023-03-13T08:02:15;5.65;;;1.80;;
38111;SDS011;64011;56.312;44.048;2023-03-13T08:04:16;6.00;;;1.77;;
38111;SDS011;64011;56.312;44.048;2023-03-13T08:06:18;3.08;;;1.17;;
38111;SDS011;64011;56.312;44.048;2023-03-13T08:08:20;4.15;;;1.60;;
38111;SDS011;64011;56.312;44.048;2023-03-13T08:10:21;5.07;;;1.48;;
38111;SDS011;64011;56.312;44.048;2023-03-13T08:12:22;4.95;;;1.85;;
38111;SDS011;64011;56.312;44.048;2023-03-13T08:14:23;4.45;;;1.60;;
38111;SDS011;64011;56.312;44.048;2023-03-13T08:16:24;8.02;;;1.80;;
38111;SDS011;64011;56.312;44.048;2023-03-13T08:18:26;7.40;;;2.15;;
38111;SDS011;64011;56.312;44.048;2023-03-13T08:20:27;3.05;;;1.25;;
38111;SDS011;64011;56.312;44.048;2023-03-13T08:22:29;3.35;;;1.30;;
38111;SDS011;64011;56.312;44.048;2023-03-13T08:24:30;5.18;;;1.55;;
38111;SDS011;64011;56.312;44.048;2023-03-13T08:26:31;5.00;;;1.33;;
38111;SDS011;64011;56.312;44.048;2023-03-13T08:28:33;8.57;;;2.20;;
38111;SDS011;64011;56.312;44.048;2023-03-13T08:30:34;6.18;;;1.67;;
38111;SDS011;64011;56.312;44.048;2023-03-13T08:32:35;5.50;;;1.60;;
38111;SDS011;64011;56.312;44.048;2023-03-13T08:34:37;7.65;;;2.20;;
38111;SDS011;64011;56.312;44.048;2023-03-13T08:36:38;7.65;;;2.40;;
38111;SDS011;64011;56.312;44.048;2023-03-13T08:38:40;4.85;;;1.50;;
38111;SDS011;64011;56.312;44.048;2023-03-13T08:40:41;6.95;;;2.10;;
38111;SDS011;64011;56.312;44.048;2023-03-13T08:42:42;5.88;;;1.90;;
38111;SDS011;64011;56.312;44.048;2023-03-13T08:44:43;6.93;;;1.88;;
38111;SDS011;64011;56.312;44.048;2023-03-13T08:46:44;2.13;;;1.00;;
38111;SDS011;64011;56.312;44.048;2023-03-13T08:48:47;4.38;;;2.03;;
38111;SDS011;64011;56.312;44.048;2023-03-13T08:50:57;4.30;;;1.27;;
38111;SDS011;64011;56.312;44.048;2023-03-13T08:52:59;4.47;;;1.60;;
38111;SDS011;64011;56.312;44.048;2023-03-13T08:55:01;3.95;;;1.55;;
38111;SDS011;64011;56.312;44.048;2023-03-13T08:57:03;4.40;;;1.67;;
38111;SDS011;64011;56.312;44.048;2023-03-13T08:59:04;5.65;;;1.80;;
38111;SDS011;64011;56.312;44.048;2023-03-13T09:01:06;3.80;;;1.63;;
38111;SDS011;64011;56.312;44.048;2023-03-13T09:03:07;5.68;;;1.73;;
38111;SDS011;64011;56.312;44.048;2023-03-13T09:05:08;5.53;;;1.65;;
38111;SDS011;64011;56.312;44.048;2023-03-13T09:07:09;2.85;;;1.30;;
38111;SDS011;64011;56.312;44.048;2023-03-13T09:09:10;5.45;;;2.10;;
38111;SDS011;64011;56.312;44.048;2023-03-13T09:11:14;7.85;;;1.70;;
38111;SDS011;64011;56.312;44.048;2023-03-13T09:13:15;4.93;;;1.90;;
38111;SDS011;64011;56.312;44.048;2023-03-13T09:15:16;4.40;;;1.73;;
38111;SDS011;64011;56.312;44.048;2023-03-13T09:17:17;6.00;;;1.80;;
38111;SDS011;64011;56.312;44.048;2023-03-13T09:19:19;4.95;;;1.85;;
38111;SDS011;64011;56.312;44.048;2023-03-13T09:21:21;6.18;;;1.85;;
38111;SDS011;64011;56.312;44.048;2023-03-13T09:23:26;5.47;;;1.80;;
38111;SDS011;64011;56.312;44.048;2023-03-13T09:25:27;8.93;;;2.92;;
38111;SDS011;64011;56.312;44.048;2023-03-13T09:27:30;4.43;;;1.67;;
38111;SDS011;64011;56.312;44.048;2023-03-13T09:29:30;4.30;;;1.80;;
38111;SDS011;64011;56.312;44.048;2023-03-13T09:31:31;3.90;;;1.55;;
38111;SDS011;64011;56.312;44.048;2023-03-13T09:33:32;5.65;;;1.60;;
38111;SDS011;64011;56.312;44.048;2023-03-13T09:35:33;5.13;;;1.58;;
38111;SDS011;64011;56.312;44.048;2023-03-13T09:37:34;4.03;;;1.60;;
38111;SDS011;64011;56.312;44.048;2023-03-13T09:39:35;4.28;;;1.58;;
38111;SDS011;64011;56.312;44.048;2023-03-13T09:41:38;4.43;;;1.50;;
38111;SDS011;64011;56.312;44.048;2023-03-13T09:43:41;3.65;;;1.17;;
38111;SDS011;64011;56.312;44.048;2023-03-13T09:45:45;4.85;;;1.70;;
38111;SDS011;64011;56.312;44.048;2023-03-13T09:47:49;5.10;;;1.60;;
38111;SDS011;64011;56.312;44.048;2023-03-13T09:49:53;4.75;;;1.80;;
38111;SDS011;64011;56.312;44.048;2023-03-13T09:52:00;5.82;;;1.90;;
38111;SDS011;64011;56.312;44.048;2023-03-13T09:54:05;4.85;;;1.80;;
38111;SDS011;64011;56.312;44.048;2023-03-13T09:56:10;3.83;;;1.45;;
38111;SDS011;64011;56.312;44.048;2023-03-13T09:58:14;4.90;;;1.63;;
38111;SDS011;64011;56.312;44.048;2023-03-13T10:00:21;5.78;;;1.73;;
38111;SDS011;64011;56.312;44.048;2023-03-13T10:02:26;6.55;;;1.85;;
38111;SDS011;64011;56.312;44.048;2023-03-13T10:04:30;5.18;;;1.70;;
38111;SDS011;64011;56.312;44.048;2023-03-13T10:06:34;7.88;;;2.30;;
38111;SDS011;64011;56.312;44.048;2023-03-13T10:08:37;4.13;;;1.40;;
38111;SDS011;64011;56.312;44.048;2023-03-13T10:10:39;5.25;;;1.73;;
38111;SDS011;64011;56.312;44.048;2023-03-13T10:12:43;4.32;;;1.50;;
38111;SDS011;64011;56.312;44.048;2023-03-13T10:14:47;9.15;;;2.40;;
38111;SDS011;64011;56.312;44.048;2023-03-13T10:16:55;4.78;;;1.40;;
38111;SDS011;64011;56.312;44.048;2023-03-13T10:19:08;3.53;;;1.30;;
38111;SDS011;64011;56.312;44.048;2023-03-13T10:21:13;5.45;;;1.50;;
38111;SDS011;64011;56.312;44.048;2023-03-13T10:23:22;3.97;;;1.20;;
38111;SDS011;64011;56.312;44.048;2023-03-13T10:25:27;4.90;;;1.85;;
38111;SDS011;64011;56.312;44.048;2023-03-13T10:27:29;3.28;;;1.30;;
38111;SDS011;64011;56.312;44.048;2023-03-13T10:29:30;3.75;;;1.05;;
38111;SDS011;64011;56.312;44.048;2023-03-13T10:31:31;10.68;;;1.40;;
38111;SDS011;64011;56.312;44.048;2023-03-13T10:33:34;6.03;;;1.77;;
38111;SDS011;64011;56.312;44.048;2023-03-13T10:35:37;2.85;;;1.30;;
38111;SDS011;64011;56.312;44.048;2023-03-13T10:37:39;4.82;;;1.30;;
38111;SDS011;64011;56.312;44.048;2023-03-13T10:39:41;3.35;;;1.20;;
38111;SDS011;64011;56.312;44.048;2023-03-13T10:41:42;6.85;;;1.73;;
38111;SDS011;64011;56.312;44.048;2023-03-13T10:43:48;5.38;;;1.63;;
38111;SDS011;64011;56.312;44.048;2023-03-13T10:45:50;5.35;;;1.60;;
38111;SDS011;64011;56.312;44.048;2023-03-13T10:47:55;3.40;;;1.27;;
38111;SDS011;64011;56.312;44.048;2023-03-13T10:50:01;6.55;;;1.40;;
38111;SDS011;64011;56.312;44.048;2023-03-13T10:52:03;5.00;;;1.23;;
38111;SDS011;64011;56.312;44.048;2023-03-13T10:54:12;6.82;;;1.63;;
38111;SDS011;64011;56.312;44.048;2023-03-13T10:56:14;2.75;;;1.20;;
38111;SDS011;64011;56.312;44.048;2023-03-13T10:58:17;2.63;;;1.15;;
38111;SDS011;64011;56.312;44.048;2023-03-13T11:00:29;3.30;;;1.30;;
38111;SDS011;64011;56.312;44.048;2023-03-13T11:02:33;5.78;;;1.60;;
38111;SDS011;64011;56.312;44.048;2023-03-13T11:04:35;4.10;;;1.30;;
38111;SDS011;64011;56.312;44.048;2023-03-13T11:06:37;10.32;;;3.97;;
38111;SDS011;64011;56.312;44.048;2023-03-13T11:08:38;19.75;;;10.27;;
38111;SDS011;64011;56.312;44.048;2023-03-13T11:10:50;21.88;;;9.82;;
38111;SDS011;64011;56.312;44.048;2023-03-13T11:12:52;16.85;;;7.97;;
38111;SDS011;64011;56.312;44.048;2023-03-13T11:14:57;7.43;;;1.40;;
38111;SDS011;64011;56.312;44.048;2023-03-13T11:17:00;3.95;;;1.08;;
38111;SDS011;64011;56.312;44.048;2023-03-13T11:19:09;2.30;;;0.90;;
38111;SDS011;64011;56.312;44.048;2023-03-13T14:48:42;3.88;;;1.38;;
38111;SDS011;64011;56.312;44.048;2023-03-13T14:50:42;3.30;;;1.15;;
38111;SDS011;64011;56.312;44.048;2023-03-13T14:52:44;1.55;;;0.70;;
38111;SDS011;64011;56.312;44.048;2023-03-13T14:54:51;4.00;;;0.70;;
38111;SDS011;64011;56.312;44.048;2023-03-13T14:57:03;3.47;;;0.98;;
38111;SDS011;64011;56.312;44.048;2023-03-13T14:59:13;3.60;;;0.98;;
38111;SDS011;64011;56.312;44.048;2023-03-13T15:01:23;4.15;;;1.00;;
38111;SDS011;64011;56.312;44.048;2023-03-13T15:03:44;7.90;;;1.50;;
38111;SDS011;64011;56.312;44.048;2023-03-13T15:05:46;5.20;;;1.33;;
38111;SDS011;64011;56.312;44.048;2023-03-13T15:07:50;6.40;;;1.30;;
38111;SDS011;64011;56.312;44.048;2023-03-13T15:09:52;5.80;;;1.45;;
38111;SDS011;64011;56.312;44.048;2023-03-13T15:11:54;3.25;;;1.33;;
38111;SDS011;64011;56.312;44.048;2023-03-13T15:13:56;7.72;;;1.67;;
38111;SDS011;64011;56.312;44.048;2023-03-13T15:15:57;5.50;;;1.77;;
38111;SDS011;64011;56.312;44.048;2023-03-13T15:17:58;11.48;;;2.35;;
38111;SDS011;64011;56.312;44.048;2023-03-13T15:20:01;6.55;;;1.63;;
38111;SDS011;64011;56.312;44.048;2023-03-13T15:22:03;6.18;;;1.40;;
38111;SDS011;64011;56.312;44.048;2023-03-13T15:24:10;5.05;;;1.33;;
38111;SDS011;64011;56.312;44.048;2023-03-13T15:26:12;3.88;;;1.27;;
38111;SDS011;64011;56.312;44.048;2023-03-13T15:28:13;4.55;;;1.50;;
38111;SDS011;64011;56.312;44.048;2023-03-13T15:30:15;4.15;;;1.33;;
38111;SDS011;64011;56.312;44.048;2023-03-13T15:32:21;7.90;;;1.55;;